sensor_id;sensor_type;location;lat;lon;timestamp;pressure;altitude;pressure_sealevel;temperature
82638;BMP280;72318;36.628;-121.932;2024-02-21T00:01:33;101448.97;;;14.11
82638;BMP280;72318;36.628;-121.932;2024-02-21T00:06:33;101453.25;;;14.26
82638;BMP280;72318;36.628;-121.932;2024-02-21T00:11:34;101450.19;;;14.34
82638;BMP280;72318;36.628;-121.932;2024-02-21T00:16:35;101458.19;;;14.30
82638;BMP280;72318;36.628;-121.932;2024-02-21T00:21:36;101456.34;;;14.52
82638;BMP280;72318;36.628;-121.932;2024-02-21T00:26:36;101452.03;;;14.16
82638;BMP280;72318;36.628;-121.932;2024-02-21T00:31:37;101467.69;;;14.28
82638;BMP280;72318;36.628;-121.932;2024-02-21T00:36:38;101467.94;;;13.95
82638;BMP280;72318;36.628;-121.932;2024-02-21T00:41:39;101461.47;;;13.96
82638;BMP280;72318;36.628;-121.932;2024-02-21T00:46:40;101456.56;;;14.05
82638;BMP280;72318;36.628;-121.932;2024-02-21T00:51:40;101450.84;;;14.03
82638;BMP280;72318;36.628;-121.932;2024-02-21T00:56:42;101447.72;;;13.91
82638;BMP280;72318;36.628;-121.932;2024-02-21T01:01:43;101457.00;;;14.14
82638;BMP280;72318;36.628;-121.932;2024-02-21T01:06:47;101453.63;;;14.38
82638;BMP280;72318;36.628;-121.932;2024-02-21T01:11:48;101453.63;;;14.38
82638;BMP280;72318;36.628;-121.932;2024-02-21T01:16:49;101459.97;;;14.09
82638;BMP280;72318;36.628;-121.932;2024-02-21T01:21:50;101462.66;;;14.02
82638;BMP280;72318;36.628;-121.932;2024-02-21T01:26:50;101464.63;;;14.26
82638;BMP280;72318;36.628;-121.932;2024-02-21T01:31:51;101460.75;;;14.06
82638;BMP280;72318;36.628;-121.932;2024-02-21T01:36:52;101457.69;;;14.04
82638;BMP280;72318;36.628;-121.932;2024-02-21T01:41:53;101461.84;;;13.98
82638;BMP280;72318;36.628;-121.932;2024-02-21T01:46:54;101455.81;;;14.01
82638;BMP280;72318;36.628;-121.932;2024-02-21T01:51:55;101452.38;;;14.04
82638;BMP280;72318;36.628;-121.932;2024-02-21T01:56:56;101462.97;;;13.90
82638;BMP280;72318;36.628;-121.932;2024-02-21T02:01:58;101465.19;;;13.81
82638;BMP280;72318;36.628;-121.932;2024-02-21T02:07:00;101457.63;;;13.94
82638;BMP280;72318;36.628;-121.932;2024-02-21T02:12:02;101479.19;;;13.64
82638;BMP280;72318;36.628;-121.932;2024-02-21T02:17:03;101480.00;;;13.79
82638;BMP280;72318;36.628;-121.932;2024-02-21T02:22:09;101481.63;;;13.90
82638;BMP280;72318;36.628;-121.932;2024-02-21T02:27:14;101475.81;;;13.74
82638;BMP280;72318;36.628;-121.932;2024-02-21T02:32:15;101488.03;;;13.82
82638;BMP280;72318;36.628;-121.932;2024-02-21T02:37:16;101498.47;;;13.51
82638;BMP280;72318;36.628;-121.932;2024-02-21T02:42:17;101491.72;;;13.64
82638;BMP280;72318;36.628;-121.932;2024-02-21T02:47:18;101490.78;;;13.42
82638;BMP280;72318;36.628;-121.932;2024-02-21T02:52:19;101496.50;;;13.44
82638;BMP280;72318;36.628;-121.932;2024-02-21T02:57:20;101490.78;;;13.42
82638;BMP280;72318;36.628;-121.932;2024-02-21T03:02:20;101495.72;;;13.40
82638;BMP280;72318;36.628;-121.932;2024-02-21T03:07:21;101494.94;;;13.36
82638;BMP280;72318;36.628;-121.932;2024-02-21T03:12:22;101502.47;;;13.31
82638;BMP280;72318;36.628;-121.932;2024-02-21T03:17:23;101498.63;;;13.25
82638;BMP280;72318;36.628;-121.932;2024-02-21T03:22:25;101499.28;;;14.26
82638;BMP280;72318;36.628;-121.932;2024-02-21T03:27:26;101494.38;;;14.31
82638;BMP280;72318;36.628;-121.932;2024-02-21T03:32:27;101506.38;;;14.97
82638;BMP280;72318;36.628;-121.932;2024-02-21T03:37:28;101507.53;;;14.96
82638;BMP280;72318;36.628;-121.932;2024-02-21T03:42:29;101517.53;;;14.14
82638;BMP280;72318;36.628;-121.932;2024-02-21T03:47:30;101512.97;;;13.60
82638;BMP280;72318;36.628;-121.932;2024-02-21T03:52:30;101528.34;;;13.30
82638;BMP280;72318;36.628;-121.932;2024-02-21T03:57:31;101523.84;;;13.38
82638;BMP280;72318;36.628;-121.932;2024-02-21T04:02:33;101537.84;;;13.28
82638;BMP280;72318;36.628;-121.932;2024-02-21T04:07:33;101541.97;;;13.26
82638;BMP280;72318;36.628;-121.932;2024-02-21T04:12:34;101549.78;;;13.48
82638;BMP280;72318;36.628;-121.932;2024-02-21T04:17:36;101559.09;;;13.68
82638;BMP280;72318;36.628;-121.932;2024-02-21T04:22:37;101570.22;;;13.33
82638;BMP280;72318;36.628;-121.932;2024-02-21T04:27:41;101568.19;;;13.20
82638;BMP280;72318;36.628;-121.932;2024-02-21T04:32:42;101579.28;;;12.93
82638;BMP280;72318;36.628;-121.932;2024-02-21T04:37:43;101581.09;;;13.58
82638;BMP280;72318;36.628;-121.932;2024-02-21T04:42:44;101579.25;;;13.26
82638;BMP280;72318;36.628;-121.932;2024-02-21T04:47:44;101576.53;;;12.86
82638;BMP280;72318;36.628;-121.932;2024-02-21T04:52:45;101583.03;;;12.88
82638;BMP280;72318;36.628;-121.932;2024-02-21T04:57:46;101583.22;;;12.73
82638;BMP280;72318;36.628;-121.932;2024-02-21T05:02:47;101579.44;;;12.74
82638;BMP280;72318;36.628;-121.932;2024-02-21T05:07:48;101580.47;;;12.66
82638;BMP280;72318;36.628;-121.932;2024-02-21T05:12:49;101593.75;;;12.66
82638;BMP280;72318;36.628;-121.932;2024-02-21T05:17:49;101592.44;;;12.49
82638;BMP280;72318;36.628;-121.932;2024-02-21T05:22:50;101598.09;;;12.48
82638;BMP280;72318;36.628;-121.932;2024-02-21T05:27:51;101605.16;;;12.66
82638;BMP280;72318;36.628;-121.932;2024-02-21T05:32:54;101611.00;;;12.75
82638;BMP280;72318;36.628;-121.932;2024-02-21T05:37:55;101605.47;;;12.58
82638;BMP280;72318;36.628;-121.932;2024-02-21T05:42:56;101615.28;;;12.28
82638;BMP280;72318;36.628;-121.932;2024-02-21T05:47:56;101608.50;;;12.30
82638;BMP280;72318;36.628;-121.932;2024-02-21T05:52:57;101599.47;;;12.38
82638;BMP280;72318;36.628;-121.932;2024-02-21T05:57:58;101610.75;;;12.32
82638;BMP280;72318;36.628;-121.932;2024-02-21T06:02:59;101604.16;;;12.45
82638;BMP280;72318;36.628;-121.932;2024-02-21T06:08:00;101605.66;;;12.20
82638;BMP280;72318;36.628;-121.932;2024-02-21T06:13:01;101613.75;;;12.27
82638;BMP280;72318;36.628;-121.932;2024-02-21T06:18:02;101605.72;;;12.49
82638;BMP280;72318;36.628;-121.932;2024-02-21T06:23:03;101610.41;;;12.33
82638;BMP280;72318;36.628;-121.932;2024-02-21T06:28:05;101617.94;;;12.54
82638;BMP280;72318;36.628;-121.932;2024-02-21T06:33:05;101615.56;;;12.49
82638;BMP280;72318;36.628;-121.932;2024-02-21T06:38:06;101608.50;;;12.08
82638;BMP280;72318;36.628;-121.932;2024-02-21T06:43:07;101610.25;;;12.49
82638;BMP280;72318;36.628;-121.932;2024-02-21T06:48:08;101625.22;;;12.34
82638;BMP280;72318;36.628;-121.932;2024-02-21T06:53:09;101613.13;;;12.66
82638;BMP280;72318;36.628;-121.932;2024-02-21T06:58:09;101613.25;;;12.44
82638;BMP280;72318;36.628;-121.932;2024-02-21T07:03:10;101607.38;;;12.61
82638;BMP280;72318;36.628;-121.932;2024-02-21T07:08:11;101603.84;;;12.53
82638;BMP280;72318;36.628;-121.932;2024-02-21T07:13:12;101608.22;;;12.98
82638;BMP280;72318;36.628;-121.932;2024-02-21T07:18:13;101591.03;;;11.85
82638;BMP280;72318;36.628;-121.932;2024-02-21T07:23:14;101591.91;;;12.15
82638;BMP280;72318;36.628;-121.932;2024-02-21T07:28:15;101610.34;;;12.04
82638;BMP280;72318;36.628;-121.932;2024-02-21T07:33:15;101619.75;;;11.57
82638;BMP280;72318;36.628;-121.932;2024-02-21T07:38:16;101617.59;;;11.62
82638;BMP280;72318;36.628;-121.932;2024-02-21T07:43:17;101619.84;;;11.83
82638;BMP280;72318;36.628;-121.932;2024-02-21T07:48:18;101618.22;;;11.75
82638;BMP280;72318;36.628;-121.932;2024-02-21T07:53:20;101617.59;;;11.85
82638;BMP280;72318;36.628;-121.932;2024-02-21T07:58:21;101621.31;;;11.80
82638;BMP280;72318;36.628;-121.932;2024-02-21T08:03:21;101610.47;;;11.89
82638;BMP280;72318;36.628;-121.932;2024-02-21T08:08:23;101620.41;;;11.69
82638;BMP280;72318;36.628;-121.932;2024-02-21T08:13:24;101615.78;;;11.89
82638;BMP280;72318;36.628;-121.932;2024-02-21T08:18:25;101618.31;;;11.63
82638;BMP280;72318;36.628;-121.932;2024-02-21T08:23:26;101623.25;;;11.61
82638;BMP280;72318;36.628;-121.932;2024-02-21T08:28:27;101614.19;;;11.43
82638;BMP280;72318;36.628;-121.932;2024-02-21T08:33:27;101625.38;;;11.33
82638;BMP280;72318;36.628;-121.932;2024-02-21T08:38:28;101626.75;;;11.27
82638;BMP280;72318;36.628;-121.932;2024-02-21T08:43:29;101626.16;;;11.15
82638;BMP280;72318;36.628;-121.932;2024-02-21T08:48:30;101631.56;;;11.21
82638;BMP280;72318;36.628;-121.932;2024-02-21T08:53:31;101641.97;;;10.92
82638;BMP280;72318;36.628;-121.932;2024-02-21T08:58:31;101632.91;;;10.93
82638;BMP280;72318;36.628;-121.932;2024-02-21T09:03:33;101624.59;;;10.95
82638;BMP280;72318;36.628;-121.932;2024-02-21T09:08:34;101623.03;;;10.94
82638;BMP280;72318;36.628;-121.932;2024-02-21T09:13:35;101619.47;;;10.86
82638;BMP280;72318;36.628;-121.932;2024-02-21T09:18:35;101630.56;;;10.73
82638;BMP280;72318;36.628;-121.932;2024-02-21T09:23:36;101620.44;;;10.78
82638;BMP280;72318;36.628;-121.932;2024-02-21T09:28:37;101623.72;;;10.72
82638;BMP280;72318;36.628;-121.932;2024-02-21T09:33:38;101627.22;;;10.95
82638;BMP280;72318;36.628;-121.932;2024-02-21T09:38:40;101627.63;;;10.78
82638;BMP280;72318;36.628;-121.932;2024-02-21T09:43:41;101627.00;;;10.65
82638;BMP280;72318;36.628;-121.932;2024-02-21T09:53:43;101637.94;;;10.64
82638;BMP280;72318;36.628;-121.932;2024-02-21T09:58:48;101637.94;;;10.64
82638;BMP280;72318;36.628;-121.932;2024-02-21T10:03:48;101630.88;;;10.71
82638;BMP280;72318;36.628;-121.932;2024-02-21T10:08:53;101623.03;;;10.94
82638;BMP280;72318;36.628;-121.932;2024-02-21T10:14:06;101623.94;;;10.82
82638;BMP280;72318;36.628;-121.932;2024-02-21T10:19:16;101625.13;;;10.85
82638;BMP280;72318;36.628;-121.932;2024-02-21T10:24:26;101612.91;;;10.80
82638;BMP280;72318;36.628;-121.932;2024-02-21T10:29:27;101623.53;;;10.99
82638;BMP280;72318;36.628;-121.932;2024-02-21T10:34:28;101628.75;;;11.11
82638;BMP280;72318;36.628;-121.932;2024-02-21T10:39:32;101633.66;;;11.13
82638;BMP280;72318;36.628;-121.932;2024-02-21T10:44:37;101643.38;;;11.05
82638;BMP280;72318;36.628;-121.932;2024-02-21T10:49:41;101640.91;;;10.97
82638;BMP280;72318;36.628;-121.932;2024-02-21T11:00:09;101647.69;;;10.94
82638;BMP280;72318;36.628;-121.932;2024-02-21T11:05:11;101652.13;;;10.90
82638;BMP280;72318;36.628;-121.932;2024-02-21T11:10:25;101655.75;;;11.17
82638;BMP280;72318;36.628;-121.932;2024-02-21T11:15:26;101657.28;;;11.18
82638;BMP280;72318;36.628;-121.932;2024-02-21T11:20:37;101648.69;;;11.24
82638;BMP280;72318;36.628;-121.932;2024-02-21T11:25:38;101656.16;;;11.37
82638;BMP280;72318;36.628;-121.932;2024-02-21T11:30:39;101648.28;;;11.60
82638;BMP280;72318;36.628;-121.932;2024-02-21T11:40:51;101661.78;;;11.51
82638;BMP280;72318;36.628;-121.932;2024-02-21T11:45:59;101665.75;;;11.61
82638;BMP280;72318;36.628;-121.932;2024-02-21T11:51:01;101667.84;;;11.52
82638;BMP280;72318;36.628;-121.932;2024-02-21T11:56:02;101667.88;;;11.55
82638;BMP280;72318;36.628;-121.932;2024-02-21T12:01:03;101671.44;;;11.63
82638;BMP280;72318;36.628;-121.932;2024-02-21T12:06:06;101677.72;;;11.74
82638;BMP280;72318;36.628;-121.932;2024-02-21T12:11:36;101671.63;;;11.92
82638;BMP280;72318;36.628;-121.932;2024-02-21T12:16:37;101672.44;;;12.41
82638;BMP280;72318;36.628;-121.932;2024-02-21T12:21:37;101687.06;;;12.54
82638;BMP280;72318;36.628;-121.932;2024-02-21T12:26:38;101696.94;;;12.53
82638;BMP280;72318;36.628;-121.932;2024-02-21T12:31:40;101700.78;;;12.56
82638;BMP280;72318;36.628;-121.932;2024-02-21T12:36:45;101699.97;;;12.52
82638;BMP280;72318;36.628;-121.932;2024-02-21T12:41:46;101707.00;;;12.41
82638;BMP280;72318;36.628;-121.932;2024-02-21T12:46:47;101711.72;;;12.28
82638;BMP280;72318;36.628;-121.932;2024-02-21T12:51:48;101724.59;;;12.26
82638;BMP280;72318;36.628;-121.932;2024-02-21T12:56:49;101709.19;;;12.35
82638;BMP280;72318;36.628;-121.932;2024-02-21T13:01:50;101715.72;;;12.38
82638;BMP280;72318;36.628;-121.932;2024-02-21T13:06:50;101709.06;;;12.28
82638;BMP280;72318;36.628;-121.932;2024-02-21T13:11:51;101721.00;;;12.16
82638;BMP280;72318;36.628;-121.932;2024-02-21T13:16:52;101719.69;;;12.06
82638;BMP280;72318;36.628;-121.932;2024-02-21T13:21:53;101721.19;;;11.85
82638;BMP280;72318;36.628;-121.932;2024-02-21T13:26:54;101727.00;;;11.90
82638;BMP280;72318;36.628;-121.932;2024-02-21T13:31:55;101738.50;;;12.17
82638;BMP280;72318;36.628;-121.932;2024-02-21T13:36:56;101728.44;;;12.07
82638;BMP280;72318;36.628;-121.932;2024-02-21T13:41:56;101733.50;;;12.15
82638;BMP280;72318;36.628;-121.932;2024-02-21T13:46:57;101740.41;;;12.16
82638;BMP280;72318;36.628;-121.932;2024-02-21T13:51:58;101750.91;;;12.31
82638;BMP280;72318;36.628;-121.932;2024-02-21T13:56:59;101759.97;;;12.08
82638;BMP280;72318;36.628;-121.932;2024-02-21T14:02:00;101774.97;;;11.97
82638;BMP280;72318;36.628;-121.932;2024-02-21T14:07:01;101763.63;;;12.00
82638;BMP280;72318;36.628;-121.932;2024-02-21T14:12:02;101762.09;;;11.99
82638;BMP280;72318;36.628;-121.932;2024-02-21T14:17:03;101764.63;;;11.73
82638;BMP280;72318;36.628;-121.932;2024-02-21T14:22:04;101754.63;;;11.67
82638;BMP280;72318;36.628;-121.932;2024-02-21T14:27:05;101752.88;;;11.74
82638;BMP280;72318;36.628;-121.932;2024-02-21T14:32:06;101747.47;;;11.52
82638;BMP280;72318;36.628;-121.932;2024-02-21T14:37:07;101756.66;;;11.73
82638;BMP280;72318;36.628;-121.932;2024-02-21T14:42:07;101768.44;;;11.38
82638;BMP280;72318;36.628;-121.932;2024-02-21T14:47:08;101767.38;;;11.23
82638;BMP280;72318;36.628;-121.932;2024-02-21T14:52:09;101772.22;;;11.37
82638;BMP280;72318;36.628;-121.932;2024-02-21T14:57:10;101772.38;;;11.28
82638;BMP280;72318;36.628;-121.932;2024-02-21T15:02:11;101775.69;;;11.41
82638;BMP280;72318;36.628;-121.932;2024-02-21T15:07:11;101770.34;;;11.22
82638;BMP280;72318;36.628;-121.932;2024-02-21T15:12:12;101770.03;;;11.23
82638;BMP280;72318;36.628;-121.932;2024-02-21T15:17:13;101761.59;;;11.21
82638;BMP280;72318;36.628;-121.932;2024-02-21T15:22:14;101769.44;;;11.15
82638;BMP280;72318;36.628;-121.932;2024-02-21T15:27:15;101776.56;;;11.29
82638;BMP280;72318;36.628;-121.932;2024-02-21T15:32:16;101778.56;;;11.32
82638;BMP280;72318;36.628;-121.932;2024-02-21T15:37:17;101792.59;;;11.33
82638;BMP280;72318;36.628;-121.932;2024-02-21T15:42:17;101804.88;;;11.41
82638;BMP280;72318;36.628;-121.932;2024-02-21T15:47:18;101805.16;;;11.36
82638;BMP280;72318;36.628;-121.932;2024-02-21T15:52:19;101807.38;;;11.34
82638;BMP280;72318;36.628;-121.932;2024-02-21T15:57:20;101821.19;;;11.58
82638;BMP280;72318;36.628;-121.932;2024-02-21T16:02:21;101818.91;;;11.41
82638;BMP280;72318;36.628;-121.932;2024-02-21T16:07:22;101833.34;;;11.59
82638;BMP280;72318;36.628;-121.932;2024-02-21T16:12:22;101843.31;;;11.62
82638;BMP280;72318;36.628;-121.932;2024-02-21T16:17:23;101828.94;;;11.82
82638;BMP280;72318;36.628;-121.932;2024-02-21T16:22:24;101844.72;;;11.94
82638;BMP280;72318;36.628;-121.932;2024-02-21T16:27:25;101862.66;;;12.16
82638;BMP280;72318;36.628;-121.932;2024-02-21T16:32:26;101873.19;;;12.50
82638;BMP280;72318;36.628;-121.932;2024-02-21T16:37:26;101871.84;;;12.41
82638;BMP280;72318;36.628;-121.932;2024-02-21T16:42:27;101888.28;;;12.46
82638;BMP280;72318;36.628;-121.932;2024-02-21T16:47:28;101896.88;;;12.59
82638;BMP280;72318;36.628;-121.932;2024-02-21T16:52:29;101910.53;;;12.80
82638;BMP280;72318;36.628;-121.932;2024-02-21T16:57:30;101909.44;;;12.81
82638;BMP280;72318;36.628;-121.932;2024-02-21T17:02:30;101907.16;;;13.02
82638;BMP280;72318;36.628;-121.932;2024-02-21T17:07:31;101919.88;;;13.63
82638;BMP280;72318;36.628;-121.932;2024-02-21T17:12:32;101925.75;;;14.02
82638;BMP280;72318;36.628;-121.932;2024-02-21T17:17:34;101936.16;;;14.86
82638;BMP280;72318;36.628;-121.932;2024-02-21T17:22:35;101949.06;;;15.24
82638;BMP280;72318;36.628;-121.932;2024-02-21T17:27:36;101945.59;;;15.74
82638;BMP280;72318;36.628;-121.932;2024-02-21T17:32:37;101966.19;;;15.73
82638;BMP280;72318;36.628;-121.932;2024-02-21T17:37:39;101973.41;;;16.65
82638;BMP280;72318;36.628;-121.932;2024-02-21T17:42:40;101989.41;;;16.51
82638;BMP280;72318;36.628;-121.932;2024-02-21T17:47:41;102003.66;;;17.24
82638;BMP280;72318;36.628;-121.932;2024-02-21T17:52:41;102009.19;;;18.03
82638;BMP280;72318;36.628;-121.932;2024-02-21T17:57:42;102012.00;;;17.72
82638;BMP280;72318;36.628;-121.932;2024-02-21T18:02:43;102017.84;;;18.35
82638;BMP280;72318;36.628;-121.932;2024-02-21T18:07:44;102024.16;;;18.72
82638;BMP280;72318;36.628;-121.932;2024-02-21T18:12:44;102032.28;;;17.87
82638;BMP280;72318;36.628;-121.932;2024-02-21T18:17:45;102035.09;;;18.44
82638;BMP280;72318;36.628;-121.932;2024-02-21T18:22:46;102036.78;;;18.75
82638;BMP280;72318;36.628;-121.932;2024-02-21T18:27:47;102039.84;;;19.28
82638;BMP280;72318;36.628;-121.932;2024-02-21T18:32:48;102057.91;;;19.24
82638;BMP280;72318;36.628;-121.932;2024-02-21T18:37:49;102058.13;;;19.43
82638;BMP280;72318;36.628;-121.932;2024-02-21T18:42:50;102070.72;;;19.90
82638;BMP280;72318;36.628;-121.932;2024-02-21T18:47:51;102077.22;;;20.48
82638;BMP280;72318;36.628;-121.932;2024-02-21T18:52:51;102076.63;;;20.67
82638;BMP280;72318;36.628;-121.932;2024-02-21T18:57:52;102084.66;;;20.41
82638;BMP280;72318;36.628;-121.932;2024-02-21T19:02:53;102090.84;;;20.64
82638;BMP280;72318;36.628;-121.932;2024-02-21T19:07:54;102099.31;;;19.73
82638;BMP280;72318;36.628;-121.932;2024-02-21T19:12:54;102096.41;;;19.14
82638;BMP280;72318;36.628;-121.932;2024-02-21T19:17:55;102104.97;;;21.44
82638;BMP280;72318;36.628;-121.932;2024-02-21T19:22:56;102098.56;;;20.39
82638;BMP280;72318;36.628;-121.932;2024-02-21T19:27:57;102112.91;;;20.59
82638;BMP280;72318;36.628;-121.932;2024-02-21T19:32:58;102110.53;;;21.14
82638;BMP280;72318;36.628;-121.932;2024-02-21T19:37:59;102123.16;;;21.40
82638;BMP280;72318;36.628;-121.932;2024-02-21T19:43:00;102126.00;;;21.75
82638;BMP280;72318;36.628;-121.932;2024-02-21T19:48:01;102107.13;;;21.91
82638;BMP280;72318;36.628;-121.932;2024-02-21T19:53:01;102106.38;;;21.90
82638;BMP280;72318;36.628;-121.932;2024-02-21T19:58:02;102102.75;;;20.40
82638;BMP280;72318;36.628;-121.932;2024-02-21T20:03:03;102095.91;;;22.47
82638;BMP280;72318;36.628;-121.932;2024-02-21T20:08:05;102097.72;;;22.18
82638;BMP280;72318;36.628;-121.932;2024-02-21T20:13:06;102096.19;;;22.17
82638;BMP280;72318;36.628;-121.932;2024-02-21T20:18:07;102088.22;;;22.61
82638;BMP280;72318;36.628;-121.932;2024-02-21T20:23:08;102085.03;;;22.31
82638;BMP280;72318;36.628;-121.932;2024-02-21T20:28:08;102095.34;;;21.43
82638;BMP280;72318;36.628;-121.932;2024-02-21T20:33:09;102087.41;;;23.65
82638;BMP280;72318;36.628;-121.932;2024-02-21T20:38:10;102074.50;;;22.84
82638;BMP280;72318;36.628;-121.932;2024-02-21T20:43:11;102094.84;;;22.89
82638;BMP280;72318;36.628;-121.932;2024-02-21T20:48:12;102094.63;;;21.81
82638;BMP280;72318;36.628;-121.932;2024-02-21T20:53:13;102081.28;;;22.60
82638;BMP280;72318;36.628;-121.932;2024-02-21T20:58:14;102090.88;;;23.66
82638;BMP280;72318;36.628;-121.932;2024-02-21T21:03:15;102086.72;;;23.20
82638;BMP280;72318;36.628;-121.932;2024-02-21T21:08:15;102082.50;;;23.19
82638;BMP280;72318;36.628;-121.932;2024-02-21T21:13:16;102079.41;;;23.05
82638;BMP280;72318;36.628;-121.932;2024-02-21T21:18:17;102069.06;;;23.00
82638;BMP280;72318;36.628;-121.932;2024-02-21T21:23:18;102063.75;;;22.97
82638;BMP280;72318;36.628;-121.932;2024-02-21T21:28:19;102054.63;;;23.35
82638;BMP280;72318;36.628;-121.932;2024-02-21T21:33:20;102042.66;;;22.76
82638;BMP280;72318;36.628;-121.932;2024-02-21T21:38:21;102038.88;;;21.71
82638;BMP280;72318;36.628;-121.932;2024-02-21T21:43:21;102028.78;;;23.18
82638;BMP280;72318;36.628;-121.932;2024-02-21T21:48:22;102033.75;;;20.96
82638;BMP280;72318;36.628;-121.932;2024-02-21T21:53:23;102016.91;;;22.55
82638;BMP280;72318;36.628;-121.932;2024-02-21T21:58:24;102008.63;;;23.19
82638;BMP280;72318;36.628;-121.932;2024-02-21T22:03:25;102010.72;;;22.71
82638;BMP280;72318;36.628;-121.932;2024-02-21T22:08:25;102014.47;;;20.97
82638;BMP280;72318;36.628;-121.932;2024-02-21T22:13:26;102009.59;;;20.89
82638;BMP280;72318;36.628;-121.932;2024-02-21T22:18:27;102008.28;;;22.29
82638;BMP280;72318;36.628;-121.932;2024-02-21T22:23:28;102009.47;;;23.44
82638;BMP280;72318;36.628;-121.932;2024-02-21T22:28:28;102003.00;;;22.38
82638;BMP280;72318;36.628;-121.932;2024-02-21T22:33:29;102010.19;;;20.77
82638;BMP280;72318;36.628;-121.932;2024-02-21T22:38:30;101999.16;;;21.33
82638;BMP280;72318;36.628;-121.932;2024-02-21T22:43:31;101998.97;;;20.32
82638;BMP280;72318;36.628;-121.932;2024-02-21T22:48:32;102005.72;;;19.21
82638;BMP280;72318;36.628;-121.932;2024-02-21T22:53:33;102005.91;;;18.50
82638;BMP280;72318;36.628;-121.932;2024-02-21T22:58:33;102018.59;;;17.18
82638;BMP280;72318;36.628;-121.932;2024-02-21T23:03:34;102027.69;;;16.55
82638;BMP280;72318;36.628;-121.932;2024-02-21T23:08:35;102021.63;;;17.59
82638;BMP280;72318;36.628;-121.932;2024-02-21T23:13:36;102024.72;;;17.05
82638;BMP280;72318;36.628;-121.932;2024-02-21T23:18:36;102020.88;;;17.23
82638;BMP280;72318;36.628;-121.932;2024-02-21T23:23:38;102015.91;;;17.15
82638;BMP280;72318;36.628;-121.932;2024-02-21T23:28:42;102017.75;;;16.59
82638;BMP280;72318;36.628;-121.932;2024-02-21T23:33:43;102013.91;;;16.46
82638;BMP280;72318;36.628;-121.932;2024-02-21T23:38:44;102007.09;;;17.28
82638;BMP280;72318;36.628;-121.932;2024-02-21T23:43:45;102023.94;;;17.01
82638;BMP280;72318;36.628;-121.932;2024-02-21T23:48:46;102028.56;;;15.91
82638;BMP280;72318;36.628;-121.932;2024-02-21T23:53:47;102019.34;;;16.84
82638;BMP280;72318;36.628;-121.932;2024-02-21T23:58:47;102018.56;;;16.70
